sensor_id;sensor_type;location;lat;lon;timestamp;P1;durP1;ratioP1;P2;durP2;ratioP2
34585;SDS011;20816;50.950;11.108;2022-11-20T00:01:18;4.03;;;2.70;;
34585;SDS011;20816;50.950;11.108;2022-11-20T00:03:47;7.83;;;2.43;;
34585;SDS011;20816;50.950;11.108;2022-11-20T00:06:15;2.00;;;1.20;;
34585;SDS011;20816;50.950;11.108;2022-11-20T00:08:44;1.80;;;1.63;;
34585;SDS011;20816;50.950;11.108;2022-11-20T00:13:43;3.77;;;1.97;;
34585;SDS011;20816;50.950;11.108;2022-11-20T00:16:10;2.47;;;1.90;;
34585;SDS011;20816;50.950;11.108;2022-11-20T00:18:38;1.60;;;0.93;;
34585;SDS011;20816;50.950;11.108;2022-11-20T00:21:10;4.77;;;3.80;;
34585;SDS011;20816;50.950;11.108;2022-11-20T00:23:42;2.80;;;1.40;;
34585;SDS011;20816;50.950;11.108;2022-11-20T00:26:10;1.77;;;1.63;;
34585;SDS011;20816;50.950;11.108;2022-11-20T00:28:39;3.30;;;2.40;;
34585;SDS011;20816;50.950;11.108;2022-11-20T00:31:08;2.37;;;2.17;;
34585;SDS011;20816;50.950;11.108;2022-11-20T00:33:36;3.23;;;1.77;;
34585;SDS011;20816;50.950;11.108;2022-11-20T00:36:04;3.93;;;2.27;;
34585;SDS011;20816;50.950;11.108;2022-11-20T00:38:34;4.17;;;2.03;;
34585;SDS011;20816;50.950;11.108;2022-11-20T00:41:02;1.87;;;1.53;;
34585;SDS011;20816;50.950;11.108;2022-11-20T00:43:30;2.67;;;2.47;;
34585;SDS011;20816;50.950;11.108;2022-11-20T00:46:00;2.77;;;1.53;;
34585;SDS011;20816;50.950;11.108;2022-11-20T00:48:28;2.37;;;1.40;;
34585;SDS011;20816;50.950;11.108;2022-11-20T00:50:55;1.43;;;1.30;;
34585;SDS011;20816;50.950;11.108;2022-11-20T00:53:22;5.40;;;1.87;;
34585;SDS011;20816;50.950;11.108;2022-11-20T00:55:56;3.33;;;2.70;;
34585;SDS011;20816;50.950;11.108;2022-11-20T00:58:31;2.73;;;1.50;;
34585;SDS011;20816;50.950;11.108;2022-11-20T01:01:06;3.40;;;2.20;;
34585;SDS011;20816;50.950;11.108;2022-11-20T01:03:35;5.20;;;1.70;;
34585;SDS011;20816;50.950;11.108;2022-11-20T01:06:10;2.10;;;1.93;;
34585;SDS011;20816;50.950;11.108;2022-11-20T01:08:41;4.83;;;2.50;;
34585;SDS011;20816;50.950;11.108;2022-11-20T01:11:12;2.07;;;1.20;;
34585;SDS011;20816;50.950;11.108;2022-11-20T01:13:42;2.17;;;1.97;;
34585;SDS011;20816;50.950;11.108;2022-11-20T01:16:19;2.87;;;1.47;;
34585;SDS011;20816;50.950;11.108;2022-11-20T01:18:48;5.50;;;1.87;;
34585;SDS011;20816;50.950;11.108;2022-11-20T01:21:18;4.20;;;2.27;;
34585;SDS011;20816;50.950;11.108;2022-11-20T01:23:45;2.47;;;2.13;;
34585;SDS011;20816;50.950;11.108;2022-11-20T01:26:13;4.27;;;1.87;;
34585;SDS011;20816;50.950;11.108;2022-11-20T01:28:42;1.83;;;1.73;;
34585;SDS011;20816;50.950;11.108;2022-11-20T01:31:10;4.43;;;2.17;;
34585;SDS011;20816;50.950;11.108;2022-11-20T01:33:39;1.07;;;0.67;;
34585;SDS011;20816;50.950;11.108;2022-11-20T01:36:07;2.03;;;1.33;;
34585;SDS011;20816;50.950;11.108;2022-11-20T01:38:35;2.37;;;1.80;;
34585;SDS011;20816;50.950;11.108;2022-11-20T01:41:02;6.17;;;1.77;;
34585;SDS011;20816;50.950;11.108;2022-11-20T01:43:29;1.97;;;1.67;;
34585;SDS011;20816;50.950;11.108;2022-11-20T01:46:16;6.17;;;1.60;;
34585;SDS011;20816;50.950;11.108;2022-11-20T01:51:17;2.20;;;2.03;;
34585;SDS011;20816;50.950;11.108;2022-11-20T01:53:49;5.30;;;1.83;;
34585;SDS011;20816;50.950;11.108;2022-11-20T01:56:18;1.63;;;0.93;;
34585;SDS011;20816;50.950;11.108;2022-11-20T01:58:50;2.53;;;1.17;;
34585;SDS011;20816;50.950;11.108;2022-11-20T02:01:20;0.83;;;0.80;;
34585;SDS011;20816;50.950;11.108;2022-11-20T02:03:47;2.47;;;1.27;;
34585;SDS011;20816;50.950;11.108;2022-11-20T02:06:19;1.97;;;0.93;;
34585;SDS011;20816;50.950;11.108;2022-11-20T02:09:02;1.90;;;1.23;;
34585;SDS011;20816;50.950;11.108;2022-11-20T02:11:29;1.87;;;1.63;;
34585;SDS011;20816;50.950;11.108;2022-11-20T02:13:56;3.13;;;1.47;;
34585;SDS011;20816;50.950;11.108;2022-11-20T02:18:55;3.90;;;1.60;;
34585;SDS011;20816;50.950;11.108;2022-11-20T02:24:19;7.80;;;1.40;;
34585;SDS011;20816;50.950;11.108;2022-11-20T02:26:53;2.13;;;1.27;;
34585;SDS011;20816;50.950;11.108;2022-11-20T02:29:26;6.20;;;1.37;;
34585;SDS011;20816;50.950;11.108;2022-11-20T02:31:57;1.90;;;1.27;;
34585;SDS011;20816;50.950;11.108;2022-11-20T02:34:27;1.93;;;1.67;;
34585;SDS011;20816;50.950;11.108;2022-11-20T02:36:54;1.70;;;1.00;;
34585;SDS011;20816;50.950;11.108;2022-11-20T02:39:23;2.83;;;1.50;;
34585;SDS011;20816;50.950;11.108;2022-11-20T02:41:52;2.23;;;0.70;;
34585;SDS011;20816;50.950;11.108;2022-11-20T02:44:20;2.53;;;1.17;;
34585;SDS011;20816;50.950;11.108;2022-11-20T02:46:46;3.83;;;1.37;;
34585;SDS011;20816;50.950;11.108;2022-11-20T02:49:13;2.80;;;1.50;;
34585;SDS011;20816;50.950;11.108;2022-11-20T02:51:40;1.27;;;1.17;;
34585;SDS011;20816;50.950;11.108;2022-11-20T02:54:06;1.47;;;1.37;;
34585;SDS011;20816;50.950;11.108;2022-11-20T02:56:33;3.23;;;1.53;;
34585;SDS011;20816;50.950;11.108;2022-11-20T02:59:00;2.43;;;1.30;;
34585;SDS011;20816;50.950;11.108;2022-11-20T03:01:26;3.67;;;1.60;;
34585;SDS011;20816;50.950;11.108;2022-11-20T03:03:53;1.10;;;0.80;;
34585;SDS011;20816;50.950;11.108;2022-11-20T03:06:21;3.53;;;2.13;;
34585;SDS011;20816;50.950;11.108;2022-11-20T03:08:48;5.27;;;1.73;;
34585;SDS011;20816;50.950;11.108;2022-11-20T03:11:14;1.43;;;1.27;;
34585;SDS011;20816;50.950;11.108;2022-11-20T03:13:41;1.10;;;1.03;;
34585;SDS011;20816;50.950;11.108;2022-11-20T03:16:09;2.13;;;0.90;;
34585;SDS011;20816;50.950;11.108;2022-11-20T03:18:40;1.23;;;1.13;;
34585;SDS011;20816;50.950;11.108;2022-11-20T03:21:08;0.87;;;0.70;;
34585;SDS011;20816;50.950;11.108;2022-11-20T03:23:36;4.13;;;1.80;;
34585;SDS011;20816;50.950;11.108;2022-11-20T03:26:07;3.47;;;1.57;;
34585;SDS011;20816;50.950;11.108;2022-11-20T03:28:39;0.77;;;0.73;;
34585;SDS011;20816;50.950;11.108;2022-11-20T03:31:11;1.60;;;1.43;;
34585;SDS011;20816;50.950;11.108;2022-11-20T03:33:39;2.53;;;0.80;;
34585;SDS011;20816;50.950;11.108;2022-11-20T03:36:08;1.13;;;1.03;;
34585;SDS011;20816;50.950;11.108;2022-11-20T03:38:37;1.90;;;0.83;;
34585;SDS011;20816;50.950;11.108;2022-11-20T03:41:11;1.57;;;1.47;;
34585;SDS011;20816;50.950;11.108;2022-11-20T03:43:49;1.23;;;0.80;;
34585;SDS011;20816;50.950;11.108;2022-11-20T03:46:16;2.43;;;1.50;;
34585;SDS011;20816;50.950;11.108;2022-11-20T03:48:42;1.73;;;1.17;;
34585;SDS011;20816;50.950;11.108;2022-11-20T03:51:17;0.97;;;0.37;;
34585;SDS011;20816;50.950;11.108;2022-11-20T03:53:44;2.60;;;1.17;;
34585;SDS011;20816;50.950;11.108;2022-11-20T03:56:13;0.93;;;0.77;;
34585;SDS011;20816;50.950;11.108;2022-11-20T03:58:41;0.57;;;0.57;;
34585;SDS011;20816;50.950;11.108;2022-11-20T04:01:10;1.80;;;1.30;;
34585;SDS011;20816;50.950;11.108;2022-11-20T04:03:39;7.27;;;1.43;;
34585;SDS011;20816;50.950;11.108;2022-11-20T04:06:08;0.60;;;0.40;;
34585;SDS011;20816;50.950;11.108;2022-11-20T04:08:37;4.80;;;0.77;;
34585;SDS011;20816;50.950;11.108;2022-11-20T04:11:08;2.47;;;1.80;;
34585;SDS011;20816;50.950;11.108;2022-11-20T04:13:35;2.53;;;0.93;;
34585;SDS011;20816;50.950;11.108;2022-11-20T04:16:02;1.80;;;1.63;;
34585;SDS011;20816;50.950;11.108;2022-11-20T04:18:29;1.03;;;0.80;;
34585;SDS011;20816;50.950;11.108;2022-11-20T04:20:56;1.17;;;1.07;;
34585;SDS011;20816;50.950;11.108;2022-11-20T04:23:24;0.97;;;0.73;;
34585;SDS011;20816;50.950;11.108;2022-11-20T04:25:54;0.30;;;0.30;;
34585;SDS011;20816;50.950;11.108;2022-11-20T04:28:20;0.70;;;0.70;;
34585;SDS011;20816;50.950;11.108;2022-11-20T04:30:47;2.40;;;1.30;;
34585;SDS011;20816;50.950;11.108;2022-11-20T04:33:14;0.37;;;0.37;;
34585;SDS011;20816;50.950;11.108;2022-11-20T04:35:40;2.33;;;1.20;;
34585;SDS011;20816;50.950;11.108;2022-11-20T04:38:07;1.20;;;0.77;;
34585;SDS011;20816;50.950;11.108;2022-11-20T04:40:34;0.40;;;0.40;;
34585;SDS011;20816;50.950;11.108;2022-11-20T04:43:02;2.67;;;1.57;;
34585;SDS011;20816;50.950;11.108;2022-11-20T04:45:29;0.83;;;0.83;;
34585;SDS011;20816;50.950;11.108;2022-11-20T04:47:55;1.77;;;1.53;;
34585;SDS011;20816;50.950;11.108;2022-11-20T04:50:22;1.53;;;1.43;;
34585;SDS011;20816;50.950;11.108;2022-11-20T04:52:49;2.33;;;0.97;;
34585;SDS011;20816;50.950;11.108;2022-11-20T04:55:15;2.30;;;2.20;;
34585;SDS011;20816;50.950;11.108;2022-11-20T04:57:42;0.37;;;0.27;;
34585;SDS011;20816;50.950;11.108;2022-11-20T05:00:10;0.87;;;0.87;;
34585;SDS011;20816;50.950;11.108;2022-11-20T05:02:37;1.43;;;1.20;;
34585;SDS011;20816;50.950;11.108;2022-11-20T05:05:04;0.57;;;0.57;;
34585;SDS011;20816;50.950;11.108;2022-11-20T05:07:30;1.10;;;1.00;;
34585;SDS011;20816;50.950;11.108;2022-11-20T05:09:57;2.03;;;0.83;;
34585;SDS011;20816;50.950;11.108;2022-11-20T05:12:24;1.73;;;0.50;;
34585;SDS011;20816;50.950;11.108;2022-11-20T05:14:50;1.30;;;1.20;;
34585;SDS011;20816;50.950;11.108;2022-11-20T05:17:17;4.83;;;1.20;;
34585;SDS011;20816;50.950;11.108;2022-11-20T05:19:44;0.87;;;0.80;;
34585;SDS011;20816;50.950;11.108;2022-11-20T05:22:17;2.40;;;1.47;;
34585;SDS011;20816;50.950;11.108;2022-11-20T05:24:43;3.37;;;1.50;;
34585;SDS011;20816;50.950;11.108;2022-11-20T05:27:10;1.33;;;1.07;;
34585;SDS011;20816;50.950;11.108;2022-11-20T05:29:37;0.83;;;0.50;;
34585;SDS011;20816;50.950;11.108;2022-11-20T05:32:04;0.30;;;0.30;;
34585;SDS011;20816;50.950;11.108;2022-11-20T05:34:32;0.97;;;0.87;;
34585;SDS011;20816;50.950;11.108;2022-11-20T05:36:59;1.77;;;0.80;;
34585;SDS011;20816;50.950;11.108;2022-11-20T05:39:25;2.47;;;0.90;;
34585;SDS011;20816;50.950;11.108;2022-11-20T05:41:52;2.40;;;2.20;;
34585;SDS011;20816;50.950;11.108;2022-11-20T05:44:39;1.43;;;1.20;;
34585;SDS011;20816;50.950;11.108;2022-11-20T05:47:05;1.00;;;1.00;;
34585;SDS011;20816;50.950;11.108;2022-11-20T05:49:32;0.50;;;0.50;;
34585;SDS011;20816;50.950;11.108;2022-11-20T05:51:59;0.57;;;0.50;;
34585;SDS011;20816;50.950;11.108;2022-11-20T05:54:26;0.40;;;0.40;;
34585;SDS011;20816;50.950;11.108;2022-11-20T05:56:52;1.33;;;0.87;;
34585;SDS011;20816;50.950;11.108;2022-11-20T05:59:19;0.77;;;0.40;;
34585;SDS011;20816;50.950;11.108;2022-11-20T06:01:46;2.13;;;0.70;;
34585;SDS011;20816;50.950;11.108;2022-11-20T06:04:13;1.37;;;0.83;;
34585;SDS011;20816;50.950;11.108;2022-11-20T06:06:39;0.77;;;0.77;;
34585;SDS011;20816;50.950;11.108;2022-11-20T06:09:06;4.30;;;1.33;;
34585;SDS011;20816;50.950;11.108;2022-11-20T06:11:33;1.63;;;0.90;;
34585;SDS011;20816;50.950;11.108;2022-11-20T06:13:59;1.27;;;1.17;;
34585;SDS011;20816;50.950;11.108;2022-11-20T06:16:26;5.70;;;1.13;;
34585;SDS011;20816;50.950;11.108;2022-11-20T06:18:53;1.93;;;1.20;;
34585;SDS011;20816;50.950;11.108;2022-11-20T06:21:20;5.57;;;2.97;;
34585;SDS011;20816;50.950;11.108;2022-11-20T06:23:49;4.83;;;2.30;;
34585;SDS011;20816;50.950;11.108;2022-11-20T06:26:17;2.97;;;1.57;;
34585;SDS011;20816;50.950;11.108;2022-11-20T06:28:46;4.30;;;2.67;;
34585;SDS011;20816;50.950;11.108;2022-11-20T06:31:13;5.00;;;2.27;;
34585;SDS011;20816;50.950;11.108;2022-11-20T06:33:41;1.83;;;1.60;;
34585;SDS011;20816;50.950;11.108;2022-11-20T06:36:09;1.70;;;1.47;;
34585;SDS011;20816;50.950;11.108;2022-11-20T06:38:38;2.70;;;1.27;;
34585;SDS011;20816;50.950;11.108;2022-11-20T06:41:06;3.90;;;2.63;;
34585;SDS011;20816;50.950;11.108;2022-11-20T06:43:35;4.87;;;1.47;;
34585;SDS011;20816;50.950;11.108;2022-11-20T06:46:01;3.60;;;2.27;;
34585;SDS011;20816;50.950;11.108;2022-11-20T06:48:28;2.63;;;1.70;;
34585;SDS011;20816;50.950;11.108;2022-11-20T06:50:56;4.10;;;2.27;;
34585;SDS011;20816;50.950;11.108;2022-11-20T06:53:23;2.10;;;1.47;;
34585;SDS011;20816;50.950;11.108;2022-11-20T06:55:51;3.70;;;2.70;;
34585;SDS011;20816;50.950;11.108;2022-11-20T06:58:18;3.00;;;1.80;;
34585;SDS011;20816;50.950;11.108;2022-11-20T07:00:45;3.50;;;1.80;;
34585;SDS011;20816;50.950;11.108;2022-11-20T07:03:12;2.93;;;1.47;;
34585;SDS011;20816;50.950;11.108;2022-11-20T07:05:39;4.70;;;2.03;;
34585;SDS011;20816;50.950;11.108;2022-11-20T07:08:06;4.90;;;2.03;;
34585;SDS011;20816;50.950;11.108;2022-11-20T07:10:34;4.50;;;1.97;;
34585;SDS011;20816;50.950;11.108;2022-11-20T07:13:01;5.87;;;2.63;;
34585;SDS011;20816;50.950;11.108;2022-11-20T07:15:27;6.20;;;2.60;;
34585;SDS011;20816;50.950;11.108;2022-11-20T07:17:54;1.60;;;1.50;;
34585;SDS011;20816;50.950;11.108;2022-11-20T07:20:21;12.50;;;2.57;;
34585;SDS011;20816;50.950;11.108;2022-11-20T07:22:52;2.90;;;2.07;;
34585;SDS011;20816;50.950;11.108;2022-11-20T07:25:20;4.43;;;2.13;;
34585;SDS011;20816;50.950;11.108;2022-11-20T07:27:46;2.67;;;1.70;;
34585;SDS011;20816;50.950;11.108;2022-11-20T07:30:13;5.90;;;2.30;;
34585;SDS011;20816;50.950;11.108;2022-11-20T07:32:41;4.03;;;2.93;;
34585;SDS011;20816;50.950;11.108;2022-11-20T07:35:08;3.60;;;1.77;;
34585;SDS011;20816;50.950;11.108;2022-11-20T07:37:35;4.77;;;2.57;;
34585;SDS011;20816;50.950;11.108;2022-11-20T07:40:01;4.13;;;2.03;;
34585;SDS011;20816;50.950;11.108;2022-11-20T07:42:29;3.53;;;2.60;;
34585;SDS011;20816;50.950;11.108;2022-11-20T07:44:55;2.50;;;1.60;;
34585;SDS011;20816;50.950;11.108;2022-11-20T07:47:22;3.47;;;2.47;;
34585;SDS011;20816;50.950;11.108;2022-11-20T07:49:49;5.87;;;2.43;;
34585;SDS011;20816;50.950;11.108;2022-11-20T07:52:15;4.50;;;2.00;;
34585;SDS011;20816;50.950;11.108;2022-11-20T07:54:42;2.57;;;1.83;;
34585;SDS011;20816;50.950;11.108;2022-11-20T07:57:09;7.20;;;2.07;;
34585;SDS011;20816;50.950;11.108;2022-11-20T07:59:35;2.83;;;2.07;;
34585;SDS011;20816;50.950;11.108;2022-11-20T08:02:05;2.23;;;1.10;;
34585;SDS011;20816;50.950;11.108;2022-11-20T08:04:31;3.23;;;1.57;;
34585;SDS011;20816;50.950;11.108;2022-11-20T08:06:59;1.27;;;1.00;;
34585;SDS011;20816;50.950;11.108;2022-11-20T08:09:26;3.00;;;1.20;;
34585;SDS011;20816;50.950;11.108;2022-11-20T08:11:52;4.37;;;1.90;;
34585;SDS011;20816;50.950;11.108;2022-11-20T08:14:38;1.70;;;1.33;;
34585;SDS011;20816;50.950;11.108;2022-11-20T08:17:05;3.43;;;1.83;;
34585;SDS011;20816;50.950;11.108;2022-11-20T08:19:31;2.40;;;1.73;;
34585;SDS011;20816;50.950;11.108;2022-11-20T08:21:59;1.57;;;1.07;;
34585;SDS011;20816;50.950;11.108;2022-11-20T08:24:25;4.13;;;1.90;;
34585;SDS011;20816;50.950;11.108;2022-11-20T08:26:52;3.83;;;2.07;;
34585;SDS011;20816;50.950;11.108;2022-11-20T08:29:19;4.63;;;1.87;;
34585;SDS011;20816;50.950;11.108;2022-11-20T08:31:46;3.53;;;1.77;;
34585;SDS011;20816;50.950;11.108;2022-11-20T08:34:13;4.03;;;2.67;;
34585;SDS011;20816;50.950;11.108;2022-11-20T08:36:44;6.57;;;2.47;;
34585;SDS011;20816;50.950;11.108;2022-11-20T08:39:11;4.53;;;2.23;;
34585;SDS011;20816;50.950;11.108;2022-11-20T08:41:38;5.23;;;2.63;;
34585;SDS011;20816;50.950;11.108;2022-11-20T08:44:06;5.03;;;2.90;;
34585;SDS011;20816;50.950;11.108;2022-11-20T08:46:37;5.67;;;2.83;;
34585;SDS011;20816;50.950;11.108;2022-11-20T08:49:10;4.20;;;2.53;;
34585;SDS011;20816;50.950;11.108;2022-11-20T08:51:38;4.90;;;2.93;;
34585;SDS011;20816;50.950;11.108;2022-11-20T08:54:06;5.43;;;3.37;;
34585;SDS011;20816;50.950;11.108;2022-11-20T08:56:33;6.17;;;4.10;;
34585;SDS011;20816;50.950;11.108;2022-11-20T08:59:00;6.00;;;2.83;;
34585;SDS011;20816;50.950;11.108;2022-11-20T09:01:47;4.50;;;2.33;;
34585;SDS011;20816;50.950;11.108;2022-11-20T09:04:14;4.50;;;2.70;;
34585;SDS011;20816;50.950;11.108;2022-11-20T09:06:41;7.53;;;2.93;;
34585;SDS011;20816;50.950;11.108;2022-11-20T09:09:08;6.27;;;2.97;;
34585;SDS011;20816;50.950;11.108;2022-11-20T09:11:35;3.80;;;2.90;;
34585;SDS011;20816;50.950;11.108;2022-11-20T09:14:02;5.37;;;2.80;;
34585;SDS011;20816;50.950;11.108;2022-11-20T09:16:31;5.77;;;3.20;;
34585;SDS011;20816;50.950;11.108;2022-11-20T09:18:58;6.37;;;3.07;;
34585;SDS011;20816;50.950;11.108;2022-11-20T09:21:45;4.37;;;3.80;;
34585;SDS011;20816;50.950;11.108;2022-11-20T09:24:11;5.83;;;3.20;;
34585;SDS011;20816;50.950;11.108;2022-11-20T09:26:38;5.90;;;3.73;;
34585;SDS011;20816;50.950;11.108;2022-11-20T09:29:05;3.70;;;3.10;;
34585;SDS011;20816;50.950;11.108;2022-11-20T09:31:32;6.13;;;3.73;;
34585;SDS011;20816;50.950;11.108;2022-11-20T09:33:58;8.23;;;4.63;;
34585;SDS011;20816;50.950;11.108;2022-11-20T09:36:25;8.10;;;4.07;;
34585;SDS011;20816;50.950;11.108;2022-11-20T09:38:52;12.67;;;5.57;;
34585;SDS011;20816;50.950;11.108;2022-11-20T09:41:43;12.47;;;5.43;;
34585;SDS011;20816;50.950;11.108;2022-11-20T09:47:08;7.80;;;4.00;;
34585;SDS011;20816;50.950;11.108;2022-11-20T09:52:54;9.53;;;5.53;;
34585;SDS011;20816;50.950;11.108;2022-11-20T09:55:27;6.63;;;3.43;;
34585;SDS011;20816;50.950;11.108;2022-11-20T09:57:57;6.37;;;3.60;;
34585;SDS011;20816;50.950;11.108;2022-11-20T10:00:25;7.73;;;4.20;;
34585;SDS011;20816;50.950;11.108;2022-11-20T10:02:59;5.77;;;2.97;;
34585;SDS011;20816;50.950;11.108;2022-11-20T10:10:53;6.40;;;3.43;;
34585;SDS011;20816;50.950;11.108;2022-11-20T10:13:49;7.07;;;3.77;;
34585;SDS011;20816;50.950;11.108;2022-11-20T10:24:40;5.77;;;3.27;;
34585;SDS011;20816;50.950;11.108;2022-11-20T10:27:29;6.23;;;3.93;;
34585;SDS011;20816;50.950;11.108;2022-11-20T10:30:02;8.73;;;4.50;;
34585;SDS011;20816;50.950;11.108;2022-11-20T10:32:38;10.40;;;5.63;;
34585;SDS011;20816;50.950;11.108;2022-11-20T10:35:14;8.90;;;4.27;;
34585;SDS011;20816;50.950;11.108;2022-11-20T10:37:47;7.40;;;4.13;;
34585;SDS011;20816;50.950;11.108;2022-11-20T10:43:25;9.73;;;4.13;;
34585;SDS011;20816;50.950;11.108;2022-11-20T10:46:06;6.03;;;2.70;;
34585;SDS011;20816;50.950;11.108;2022-11-20T10:48:41;8.27;;;4.47;;
34585;SDS011;20816;50.950;11.108;2022-11-20T11:02:20;11.93;;;5.10;;
34585;SDS011;20816;50.950;11.108;2022-11-20T11:04:50;21.87;;;10.67;;
34585;SDS011;20816;50.950;11.108;2022-11-20T11:07:28;11.93;;;5.63;;
34585;SDS011;20816;50.950;11.108;2022-11-20T11:10:01;9.90;;;5.10;;
34585;SDS011;20816;50.950;11.108;2022-11-20T11:12:42;6.73;;;4.70;;
34585;SDS011;20816;50.950;11.108;2022-11-20T11:15:12;12.57;;;5.53;;
34585;SDS011;20816;50.950;11.108;2022-11-20T11:17:47;8.33;;;3.60;;
34585;SDS011;20816;50.950;11.108;2022-11-20T11:22:47;19.03;;;6.37;;
34585;SDS011;20816;50.950;11.108;2022-11-20T11:25:20;12.70;;;5.67;;
34585;SDS011;20816;50.950;11.108;2022-11-20T11:27:50;9.47;;;5.23;;
34585;SDS011;20816;50.950;11.108;2022-11-20T11:30:18;15.93;;;6.57;;
34585;SDS011;20816;50.950;11.108;2022-11-20T11:32:46;12.30;;;5.80;;
34585;SDS011;20816;50.950;11.108;2022-11-20T11:37:47;6.33;;;4.53;;
34585;SDS011;20816;50.950;11.108;2022-11-20T11:40:15;11.17;;;5.30;;
34585;SDS011;20816;50.950;11.108;2022-11-20T11:42:58;10.20;;;6.33;;
34585;SDS011;20816;50.950;11.108;2022-11-20T11:45:28;13.57;;;5.17;;
34585;SDS011;20816;50.950;11.108;2022-11-20T11:47:56;8.67;;;4.47;;
34585;SDS011;20816;50.950;11.108;2022-11-20T11:50:27;10.33;;;5.30;;
34585;SDS011;20816;50.950;11.108;2022-11-20T11:58:47;9.57;;;3.47;;
34585;SDS011;20816;50.950;11.108;2022-11-20T12:01:26;9.17;;;4.57;;
34585;SDS011;20816;50.950;11.108;2022-11-20T12:06:43;8.80;;;4.50;;
34585;SDS011;20816;50.950;11.108;2022-11-20T12:09:13;10.43;;;5.33;;
34585;SDS011;20816;50.950;11.108;2022-11-20T12:14:19;12.63;;;5.43;;
34585;SDS011;20816;50.950;11.108;2022-11-20T12:16:52;11.50;;;6.20;;
34585;SDS011;20816;50.950;11.108;2022-11-20T12:19:22;9.33;;;4.70;;
34585;SDS011;20816;50.950;11.108;2022-11-20T12:27:43;9.10;;;5.43;;
34585;SDS011;20816;50.950;11.108;2022-11-20T12:30:15;12.93;;;6.77;;
34585;SDS011;20816;50.950;11.108;2022-11-20T12:35:44;14.43;;;7.63;;
34585;SDS011;20816;50.950;11.108;2022-11-20T12:44:23;14.27;;;5.30;;
34585;SDS011;20816;50.950;11.108;2022-11-20T12:52:56;9.93;;;6.37;;
34585;SDS011;20816;50.950;11.108;2022-11-20T13:01:00;15.97;;;6.27;;
34585;SDS011;20816;50.950;11.108;2022-11-20T13:03:42;12.43;;;5.50;;
34585;SDS011;20816;50.950;11.108;2022-11-20T13:06:17;14.80;;;5.67;;
34585;SDS011;20816;50.950;11.108;2022-11-20T13:08:47;11.27;;;6.73;;
34585;SDS011;20816;50.950;11.108;2022-11-20T13:17:56;12.33;;;5.60;;
34585;SDS011;20816;50.950;11.108;2022-11-20T13:20:25;11.67;;;6.50;;
34585;SDS011;20816;50.950;11.108;2022-11-20T13:22:53;12.73;;;6.63;;
34585;SDS011;20816;50.950;11.108;2022-11-20T13:27:58;9.23;;;4.50;;
34585;SDS011;20816;50.950;11.108;2022-11-20T13:30:51;10.43;;;6.90;;
34585;SDS011;20816;50.950;11.108;2022-11-20T13:36:05;18.80;;;7.97;;
34585;SDS011;20816;50.950;11.108;2022-11-20T13:38:41;14.90;;;6.43;;
34585;SDS011;20816;50.950;11.108;2022-11-20T13:41:25;16.70;;;6.40;;
34585;SDS011;20816;50.950;11.108;2022-11-20T13:44:06;15.00;;;6.30;;
34585;SDS011;20816;50.950;11.108;2022-11-20T13:46:43;12.57;;;6.30;;
34585;SDS011;20816;50.950;11.108;2022-11-20T13:49:18;19.87;;;7.07;;
34585;SDS011;20816;50.950;11.108;2022-11-20T13:51:47;13.27;;;6.47;;
34585;SDS011;20816;50.950;11.108;2022-11-20T14:00:15;11.87;;;5.83;;
34585;SDS011;20816;50.950;11.108;2022-11-20T14:02:43;13.87;;;6.30;;
34585;SDS011;20816;50.950;11.108;2022-11-20T14:05:21;14.00;;;6.37;;
34585;SDS011;20816;50.950;11.108;2022-11-20T14:07:50;17.93;;;8.23;;
34585;SDS011;20816;50.950;11.108;2022-11-20T14:12:57;13.17;;;6.47;;
34585;SDS011;20816;50.950;11.108;2022-11-20T14:15:25;14.40;;;5.90;;
34585;SDS011;20816;50.950;11.108;2022-11-20T14:17:57;11.00;;;5.87;;
34585;SDS011;20816;50.950;11.108;2022-11-20T14:20:26;9.00;;;6.27;;
34585;SDS011;20816;50.950;11.108;2022-11-20T14:22:55;10.47;;;5.40;;
34585;SDS011;20816;50.950;11.108;2022-11-20T14:25:23;11.03;;;4.87;;
34585;SDS011;20816;50.950;11.108;2022-11-20T14:27:57;13.70;;;5.73;;
34585;SDS011;20816;50.950;11.108;2022-11-20T14:30:27;9.43;;;4.97;;
34585;SDS011;20816;50.950;11.108;2022-11-20T14:32:56;12.17;;;4.67;;
34585;SDS011;20816;50.950;11.108;2022-11-20T14:35:28;12.73;;;6.23;;
34585;SDS011;20816;50.950;11.108;2022-11-20T14:37:57;10.37;;;4.93;;
34585;SDS011;20816;50.950;11.108;2022-11-20T14:40:26;16.70;;;5.80;;
34585;SDS011;20816;50.950;11.108;2022-11-20T14:42:58;11.00;;;5.47;;
34585;SDS011;20816;50.950;11.108;2022-11-20T14:45:26;9.07;;;4.70;;
34585;SDS011;20816;50.950;11.108;2022-11-20T14:47:54;9.33;;;5.13;;
34585;SDS011;20816;50.950;11.108;2022-11-20T14:50:27;12.70;;;5.33;;
34585;SDS011;20816;50.950;11.108;2022-11-20T14:52:56;14.67;;;5.53;;
34585;SDS011;20816;50.950;11.108;2022-11-20T14:55:34;8.90;;;4.70;;
34585;SDS011;20816;50.950;11.108;2022-11-20T14:58:06;11.10;;;5.20;;
34585;SDS011;20816;50.950;11.108;2022-11-20T15:00:57;10.30;;;4.80;;
34585;SDS011;20816;50.950;11.108;2022-11-20T15:03:35;12.47;;;5.20;;
34585;SDS011;20816;50.950;11.108;2022-11-20T15:06:04;8.23;;;4.63;;
34585;SDS011;20816;50.950;11.108;2022-11-20T15:08:32;12.53;;;5.90;;
34585;SDS011;20816;50.950;11.108;2022-11-20T15:11:00;10.63;;;5.13;;
34585;SDS011;20816;50.950;11.108;2022-11-20T15:13:37;14.00;;;6.10;;
34585;SDS011;20816;50.950;11.108;2022-11-20T15:16:08;11.50;;;5.73;;
34585;SDS011;20816;50.950;11.108;2022-11-20T15:18:45;12.03;;;5.03;;
34585;SDS011;20816;50.950;11.108;2022-11-20T15:21:14;10.47;;;4.97;;
34585;SDS011;20816;50.950;11.108;2022-11-20T15:23:42;13.27;;;6.70;;
34585;SDS011;20816;50.950;11.108;2022-11-20T15:26:10;9.37;;;5.20;;
34585;SDS011;20816;50.950;11.108;2022-11-20T15:28:45;15.53;;;6.17;;
34585;SDS011;20816;50.950;11.108;2022-11-20T15:31:15;9.60;;;5.00;;
34585;SDS011;20816;50.950;11.108;2022-11-20T15:33:44;7.83;;;4.67;;
34585;SDS011;20816;50.950;11.108;2022-11-20T15:36:11;9.17;;;5.30;;
34585;SDS011;20816;50.950;11.108;2022-11-20T15:38:38;8.47;;;4.80;;
34585;SDS011;20816;50.950;11.108;2022-11-20T15:41:05;7.13;;;4.83;;
34585;SDS011;20816;50.950;11.108;2022-11-20T15:43:32;12.80;;;5.97;;
34585;SDS011;20816;50.950;11.108;2022-11-20T15:46:00;16.87;;;6.77;;
34585;SDS011;20816;50.950;11.108;2022-11-20T15:48:37;17.73;;;6.93;;
34585;SDS011;20816;50.950;11.108;2022-11-20T15:54:00;7.83;;;5.03;;
34585;SDS011;20816;50.950;11.108;2022-11-20T15:56:35;9.20;;;4.30;;
34585;SDS011;20816;50.950;11.108;2022-11-20T15:59:02;9.70;;;4.43;;
34585;SDS011;20816;50.950;11.108;2022-11-20T16:01:28;10.93;;;5.60;;
34585;SDS011;20816;50.950;11.108;2022-11-20T16:03:55;13.60;;;5.10;;
34585;SDS011;20816;50.950;11.108;2022-11-20T16:06:22;13.70;;;6.27;;
34585;SDS011;20816;50.950;11.108;2022-11-20T16:08:49;8.10;;;5.03;;
34585;SDS011;20816;50.950;11.108;2022-11-20T16:11:16;8.53;;;4.87;;
34585;SDS011;20816;50.950;11.108;2022-11-20T16:13:44;12.67;;;6.17;;
34585;SDS011;20816;50.950;11.108;2022-11-20T16:16:30;8.00;;;4.10;;
34585;SDS011;20816;50.950;11.108;2022-11-20T16:18:59;9.80;;;4.00;;
34585;SDS011;20816;50.950;11.108;2022-11-20T16:21:27;12.23;;;5.73;;
34585;SDS011;20816;50.950;11.108;2022-11-20T16:24:01;12.60;;;5.07;;
34585;SDS011;20816;50.950;11.108;2022-11-20T16:26:31;9.83;;;4.93;;
34585;SDS011;20816;50.950;11.108;2022-11-20T16:28:59;9.67;;;4.73;;
34585;SDS011;20816;50.950;11.108;2022-11-20T16:31:26;10.80;;;5.13;;
34585;SDS011;20816;50.950;11.108;2022-11-20T16:33:54;11.60;;;5.77;;
34585;SDS011;20816;50.950;11.108;2022-11-20T16:36:22;18.23;;;7.30;;